Time;durP1;ratioP1;P1;durP2;ratioP2;P2;SDS_P1;SDS_P2;PMS_P1;PMS_P2;Temp;Humidity;BMP_temperature;BMP_pressure;BME280_temperature;BME280_humidity;BME280_pressure;Samples;Min_cycle;Max_cycle;Signal;HPM_P1;HPM_P2
2023/04/26 00:00:19;;;;;;;0.00;0.00;;;6.00;99.90;;;;;;5029231;28;20041;-62
2023/04/26 00:02:45;;;;;;;0.10;0.10;;;6.00;99.90;;;;;;5030757;28;20366;-62
2023/04/26 00:05:10;;;;;;;0.30;0.30;;;6.00;99.90;;;;;;5018461;28;20103;-62
2023/04/26 00:07:39;;;;;;;0.10;0.10;;;6.00;99.90;;;;;;5019121;28;20033;-62
2023/04/26 00:10:06;;;;;;;0.38;0.38;;;6.00;99.90;;;;;;5016350;28;20048;-62
2023/04/26 00:12:32;;;;;;;0.20;0.20;;;6.00;99.90;;;;;;5022452;28;20059;-63
2023/04/26 00:14:57;;;;;;;0.25;0.25;;;6.10;99.90;;;;;;5019217;28;20049;-62
2023/04/26 00:17:23;;;;;;;0.55;0.55;;;6.00;99.90;;;;;;5021257;28;20133;-62
2023/04/26 00:19:49;;;;;;;0.10;0.10;;;5.80;99.90;;;;;;5027013;28;20132;-62
2023/04/26 00:22:15;;;;;;;0.10;0.10;;;5.80;99.90;;;;;;5015243;28;20068;-62
2023/04/26 00:24:42;;;;;;;0.20;0.20;;;5.90;99.90;;;;;;5016258;28;20045;-62
2023/04/26 00:27:09;;;;;;;0.00;0.00;;;6.10;99.90;;;;;;5019033;28;20133;-62
2023/04/26 00:29:36;;;;;;;0.00;0.00;;;6.20;99.90;;;;;;5021101;28;20045;-62
2023/04/26 00:32:01;;;;;;;0.00;0.00;;;6.20;99.90;;;;;;5018263;28;20505;-62
2023/04/26 00:34:35;;;;;;;0.00;0.00;;;6.20;99.90;;;;;;5014931;28;20053;-62
2023/04/26 00:37:01;;;;;;;0.10;0.10;;;6.20;99.90;;;;;;5020172;28;20045;-62
2023/04/26 00:39:26;;;;;;;0.10;0.10;;;6.20;99.90;;;;;;5021767;28;20080;-62
2023/04/26 00:41:52;;;;;;;0.08;0.08;;;6.20;99.90;;;;;;5017573;28;20053;-62
2023/04/26 00:44:18;;;;;;;0.10;0.10;;;6.10;99.90;;;;;;5038854;28;20081;-62
2023/04/26 00:46:44;;;;;;;0.00;0.00;;;6.00;99.90;;;;;;5020600;28;20030;-63
2023/04/26 00:49:15;;;;;;;0.43;0.43;;;6.00;99.90;;;;;;5027413;28;20370;-62
2023/04/26 00:51:43;;;;;;;0.20;0.20;;;5.80;99.90;;;;;;5032041;28;20056;-62
2023/04/26 00:54:09;;;;;;;0.10;0.10;;;5.90;99.90;;;;;;5019440;28;20053;-62
2023/04/26 00:56:37;;;;;;;0.10;0.10;;;5.90;99.90;;;;;;5032169;28;20059;-62
2023/04/26 00:59:03;;;;;;;0.10;0.10;;;5.80;99.90;;;;;;5030740;28;20049;-63
2023/04/26 01:01:29;;;;;;;0.10;0.10;;;5.80;99.90;;;;;;5019404;28;20057;-62
2023/04/26 01:03:55;;;;;;;0.10;0.10;;;5.70;99.90;;;;;;5024356;28;20041;-63
2023/04/26 01:06:21;;;;;;;0.00;0.00;;;5.80;99.90;;;;;;5027363;28;20046;-62
2023/04/26 01:08:52;;;;;;;0.10;0.10;;;5.70;99.90;;;;;;5031111;28;20044;-62
2023/04/26 01:11:21;;;;;;;0.65;0.65;;;5.70;99.90;;;;;;5026285;28;20050;-62
2023/04/26 01:13:47;;;;;;;0.10;0.10;;;5.70;99.90;;;;;;5031020;28;20033;-62
2023/04/26 01:16:14;;;;;;;0.10;0.10;;;5.60;99.90;;;;;;5019300;28;20129;-62
2023/04/26 01:18:40;;;;;;;0.10;0.10;;;5.60;99.90;;;;;;5022319;28;20048;-62
2023/04/26 01:21:05;;;;;;;0.10;0.10;;;5.50;99.90;;;;;;5030408;28;20049;-62
2023/04/26 01:23:31;;;;;;;0.00;0.00;;;5.50;99.90;;;;;;5030286;28;20500;-62
2023/04/26 01:25:57;;;;;;;0.10;0.10;;;5.60;99.90;;;;;;5017361;28;20041;-62
2023/04/26 01:28:22;;;;;;;0.10;0.10;;;5.50;99.90;;;;;;5022867;28;20049;-62
2023/04/26 01:30:48;;;;;;;0.10;0.10;;;5.40;99.90;;;;;;5030355;28;20508;-62
2023/04/26 01:33:14;;;;;;;0.00;0.00;;;5.40;99.90;;;;;;5024945;28;20044;-62
2023/04/26 01:35:41;;;;;;;0.10;0.10;;;5.40;99.90;;;;;;5017986;28;20087;-62
2023/04/26 01:38:07;;;;;;;0.40;0.38;;;5.40;99.90;;;;;;5028156;28;20124;-62
2023/04/26 01:40:32;;;;;;;0.10;0.10;;;5.30;99.90;;;;;;5017077;28;20100;-62
2023/04/26 01:42:58;;;;;;;0.50;0.50;;;5.30;99.90;;;;;;5022896;28;20050;-62
2023/04/26 01:45:23;;;;;;;0.10;0.10;;;5.30;99.90;;;;;;5019248;28;20592;-62
2023/04/26 01:47:49;;;;;;;0.10;0.10;;;5.30;99.90;;;;;;5027690;28;20045;-62
2023/04/26 01:50:14;;;;;;;0.00;0.00;;;5.30;99.90;;;;;;5031188;28;20065;-62
2023/04/26 01:52:40;;;;;;;0.00;0.00;;;5.30;99.90;;;;;;5028637;28;20053;-62
2023/04/26 01:55:06;;;;;;;0.10;0.10;;;5.30;99.90;;;;;;5020819;28;20045;-62
2023/04/26 01:57:32;;;;;;;0.20;0.20;;;5.20;99.90;;;;;;5031552;28;20100;-62
2023/04/26 01:59:58;;;;;;;0.10;0.10;;;5.20;99.90;;;;;;5018288;28;20429;-62
2023/04/26 02:02:24;;;;;;;0.00;0.00;;;5.20;99.90;;;;;;5022618;28;20060;-62
2023/04/26 02:04:49;;;;;;;0.10;0.10;;;5.20;99.90;;;;;;5024152;28;20465;-62
2023/04/26 02:07:15;;;;;;;0.10;0.10;;;5.10;99.90;;;;;;5022523;28;20045;-62
2023/04/26 02:09:41;;;;;;;0.10;0.10;;;5.20;99.90;;;;;;5015529;28;20064;-62
2023/04/26 02:12:07;;;;;;;0.52;0.52;;;5.20;99.90;;;;;;5022780;28;20117;-62
2023/04/26 02:14:32;;;;;;;0.10;0.10;;;5.10;99.90;;;;;;5029275;28;20059;-62
2023/04/26 02:16:58;;;;;;;0.10;0.10;;;5.20;99.90;;;;;;5029780;28;20463;-62
2023/04/26 02:19:23;;;;;;;0.10;0.10;;;5.20;99.90;;;;;;5028045;28;20038;-62
2023/04/26 02:21:54;;;;;;;0.00;0.00;;;5.20;99.90;;;;;;5024300;28;20041;-62
2023/04/26 02:24:20;;;;;;;0.10;0.10;;;5.10;99.90;;;;;;5027808;28;20045;-62
2023/04/26 02:26:46;;;;;;;0.10;0.10;;;5.10;99.90;;;;;;5016541;28;20178;-62
2023/04/26 02:29:11;;;;;;;0.25;0.25;;;5.20;99.90;;;;;;5018209;28;20432;-62
2023/04/26 02:31:37;;;;;;;0.10;0.10;;;5.30;99.90;;;;;;5029878;28;20045;-62
2023/04/26 02:34:02;;;;;;;0.10;0.10;;;5.40;99.90;;;;;;5016646;28;20038;-62
2023/04/26 02:36:28;;;;;;;0.00;0.00;;;5.30;99.90;;;;;;5018917;28;20146;-62
2023/04/26 02:38:54;;;;;;;0.10;0.10;;;5.40;99.90;;;;;;5030686;28;20037;-62
2023/04/26 02:41:20;;;;;;;0.10;0.10;;;5.40;99.90;;;;;;5031595;28;20507;-62
2023/04/26 02:43:46;;;;;;;0.00;0.00;;;5.40;99.90;;;;;;5024446;28;20057;-62
2023/04/26 02:46:11;;;;;;;0.10;0.10;;;5.40;99.90;;;;;;5020311;28;20041;-62
2023/04/26 02:48:37;;;;;;;0.47;0.47;;;5.40;99.90;;;;;;5024545;28;20052;-62
2023/04/26 02:51:03;;;;;;;0.10;0.10;;;5.40;99.90;;;;;;5026953;28;20041;-63
2023/04/26 02:53:28;;;;;;;0.10;0.10;;;5.40;99.90;;;;;;5034332;28;20053;-62
2023/04/26 02:55:54;;;;;;;0.10;0.10;;;5.40;99.90;;;;;;5027135;28;20452;-62
2023/04/26 02:58:20;;;;;;;0.10;0.10;;;5.40;99.90;;;;;;5027872;28;20064;-62
2023/04/26 03:00:48;;;;;;;0.10;0.10;;;5.40;99.90;;;;;;5021868;28;20083;-62
2023/04/26 03:03:15;;;;;;;0.10;0.10;;;5.40;99.90;;;;;;5030330;28;20448;-62
2023/04/26 03:05:40;;;;;;;0.10;0.10;;;5.30;99.90;;;;;;5019551;28;20056;-62
2023/04/26 03:08:06;;;;;;;4.20;2.08;;;5.30;99.90;;;;;;5019467;28;20050;-62
2023/04/26 03:10:32;;;;;;;0.10;0.10;;;5.20;99.90;;;;;;5026068;28;20036;-62
2023/04/26 03:12:58;;;;;;;0.10;0.10;;;5.20;99.90;;;;;;5031549;28;20052;-62
2023/04/26 03:15:23;;;;;;;0.10;0.10;;;5.10;99.90;;;;;;5023605;28;20457;-62
2023/04/26 03:17:49;;;;;;;0.10;0.10;;;5.20;99.90;;;;;;5018107;28;20133;-62
2023/04/26 03:20:15;;;;;;;0.10;0.10;;;5.20;99.90;;;;;;5016546;28;20042;-62
2023/04/26 03:22:41;;;;;;;0.10;0.10;;;5.20;99.90;;;;;;5024232;28;20048;-62
2023/04/26 03:25:07;;;;;;;0.08;0.08;;;5.20;99.90;;;;;;5027907;28;20496;-62
2023/04/26 03:27:33;;;;;;;0.10;0.10;;;5.20;99.90;;;;;;5019843;28;20380;-62
2023/04/26 03:29:59;;;;;;;0.10;0.10;;;5.20;99.90;;;;;;5026478;28;20699;-62
2023/04/26 03:32:24;;;;;;;0.25;0.25;;;5.10;99.90;;;;;;5026292;28;20117;-62
2023/04/26 03:34:50;;;;;;;0.10;0.10;;;5.10;99.90;;;;;;5038056;28;20048;-62
2023/04/26 03:37:15;;;;;;;0.52;0.52;;;5.20;99.90;;;;;;5017497;28;20116;-62
2023/04/26 03:39:41;;;;;;;0.10;0.10;;;5.30;99.90;;;;;;5025431;28;20084;-62
2023/04/26 03:42:07;;;;;;;0.28;0.28;;;5.40;99.90;;;;;;5025291;28;20049;-62
2023/04/26 03:44:32;;;;;;;0.15;0.15;;;5.60;99.90;;;;;;5013229;28;20045;-62
2023/04/26 03:46:58;;;;;;;0.10;0.10;;;5.70;99.90;;;;;;5023870;28;20594;-62
2023/04/26 03:49:24;;;;;;;0.10;0.10;;;5.60;99.90;;;;;;5029001;28;20037;-62
2023/04/26 03:51:49;;;;;;;0.10;0.10;;;5.60;99.90;;;;;;5019190;28;20061;-62
2023/04/26 03:54:15;;;;;;;0.10;0.10;;;5.60;99.90;;;;;;5029775;28;20048;-62
2023/04/26 03:56:40;;;;;;;0.85;0.68;;;5.50;99.90;;;;;;5027588;28;20187;-62
2023/04/26 03:59:08;;;;;;;0.10;0.10;;;5.50;99.90;;;;;;5015277;28;20104;-62
2023/04/26 04:01:34;;;;;;;0.10;0.10;;;5.50;99.90;;;;;;5021996;28;20053;-62
2023/04/26 04:03:59;;;;;;;0.43;0.43;;;5.50;99.90;;;;;;5029206;28;20496;-62
2023/04/26 04:06:25;;;;;;;0.10;0.10;;;5.40;99.90;;;;;;5012892;28;20136;-62
2023/04/26 04:08:51;;;;;;;0.10;0.10;;;5.40;99.90;;;;;;5016860;28;20049;-62
2023/04/26 04:11:16;;;;;;;0.10;0.10;;;5.40;99.90;;;;;;5027497;28;20515;-62
2023/04/26 04:13:42;;;;;;;0.10;0.10;;;5.40;99.90;;;;;;5024331;28;20087;-62
2023/04/26 04:16:09;;;;;;;0.10;0.10;;;5.30;99.90;;;;;;5014745;28;20041;-62
2023/04/26 04:18:35;;;;;;;0.30;0.30;;;5.30;99.90;;;;;;5030187;28;20194;-62
2023/04/26 04:21:00;;;;;;;1.67;1.35;;;5.30;99.90;;;;;;5033837;28;20042;-62
2023/04/26 04:23:26;;;;;;;0.10;0.10;;;5.30;99.90;;;;;;5024796;28;20124;-62
2023/04/26 04:25:52;;;;;;;0.10;0.10;;;5.20;99.90;;;;;;5024270;28;20145;-62
2023/04/26 04:28:18;;;;;;;0.10;0.10;;;5.20;99.90;;;;;;5024546;28;20136;-62
2023/04/26 04:30:44;;;;;;;0.40;0.40;;;5.10;99.90;;;;;;5023407;28;20041;-62
2023/04/26 04:33:11;;;;;;;0.10;0.10;;;5.10;99.90;;;;;;5026876;28;20048;-62
2023/04/26 04:35:36;;;;;;;0.35;0.35;;;5.10;99.90;;;;;;5018049;28;20057;-62
2023/04/26 04:38:02;;;;;;;0.20;0.20;;;5.10;99.90;;;;;;5014631;28;20042;-62
2023/04/26 04:40:27;;;;;;;0.10;0.10;;;5.20;99.90;;;;;;5027478;28;20056;-62
2023/04/26 04:42:54;;;;;;;0.10;0.10;;;5.20;99.90;;;;;;5032717;28;20103;-62
2023/04/26 04:45:20;;;;;;;0.20;0.20;;;5.30;99.90;;;;;;5017214;28;20042;-62
2023/04/26 04:47:46;;;;;;;0.00;0.00;;;5.40;99.90;;;;;;5025506;28;20130;-62
2023/04/26 04:50:12;;;;;;;0.10;0.10;;;5.30;99.90;;;;;;5024385;28;20076;-62
2023/04/26 04:52:37;;;;;;;0.20;0.20;;;5.20;99.90;;;;;;5025493;28;20175;-62
2023/04/26 04:55:03;;;;;;;2.20;0.90;;;5.30;99.90;;;;;;5033853;28;20076;-62
2023/04/26 04:57:30;;;;;;;0.10;0.10;;;5.40;99.90;;;;;;5018698;28;20559;-62
2023/04/26 04:59:56;;;;;;;0.10;0.10;;;5.40;99.90;;;;;;5032537;28;20421;-62
2023/04/26 05:02:21;;;;;;;0.95;0.95;;;5.40;99.90;;;;;;5033389;28;20047;-62
2023/04/26 05:04:47;;;;;;;0.50;0.50;;;5.40;99.90;;;;;;5022257;28;20057;-62
2023/04/26 05:07:14;;;;;;;0.30;0.30;;;5.40;99.90;;;;;;5026917;28;20060;-62
2023/04/26 05:09:41;;;;;;;0.10;0.10;;;5.40;99.90;;;;;;5026698;28;20493;-62
2023/04/26 05:12:06;;;;;;;0.10;0.10;;;5.30;99.90;;;;;;5028348;28;20140;-62
2023/04/26 05:14:32;;;;;;;0.30;0.30;;;5.30;99.90;;;;;;5043053;28;20128;-62
2023/04/26 05:16:57;;;;;;;0.28;0.28;;;5.20;99.90;;;;;;5019255;28;20124;-62
2023/04/26 05:19:23;;;;;;;0.10;0.10;;;5.10;99.90;;;;;;5026889;28;20045;-63
2023/04/26 05:21:49;;;;;;;0.10;0.10;;;5.10;99.90;;;;;;5032711;28;20037;-62
2023/04/26 05:24:15;;;;;;;0.08;0.08;;;5.10;99.90;;;;;;5038409;28;20115;-62
2023/04/26 05:26:40;;;;;;;0.10;0.10;;;5.00;99.90;;;;;;5020778;28;20038;-62
2023/04/26 05:29:06;;;;;;;0.10;0.10;;;5.10;99.90;;;;;;5025914;28;20426;-63
2023/04/26 05:31:31;;;;;;;0.10;0.10;;;5.20;99.90;;;;;;5024401;28;20104;-62
2023/04/26 05:33:57;;;;;;;0.47;0.47;;;5.30;99.90;;;;;;5018295;28;20081;-62
2023/04/26 05:36:22;;;;;;;0.10;0.10;;;5.40;99.90;;;;;;5016894;28;20465;-62
2023/04/26 05:38:48;;;;;;;0.20;0.20;;;5.40;99.90;;;;;;5025794;28;20045;-62
2023/04/26 05:41:14;;;;;;;0.55;0.55;;;5.60;99.90;;;;;;5030426;28;20103;-62
2023/04/26 05:43:39;;;;;;;0.10;0.10;;;5.70;99.90;;;;;;5018966;28;20482;-62
2023/04/26 05:46:05;;;;;;;0.10;0.10;;;5.90;99.90;;;;;;5016796;28;20046;-62
2023/04/26 05:48:30;;;;;;;0.17;0.17;;;5.90;99.90;;;;;;5021779;28;20049;-62
2023/04/26 05:50:56;;;;;;;1.55;1.45;;;6.00;99.90;;;;;;5031224;28;20045;-63
2023/04/26 05:53:22;;;;;;;0.00;0.00;;;6.00;99.90;;;;;;5035410;28;20060;-62
2023/04/26 05:55:47;;;;;;;0.10;0.10;;;6.10;99.90;;;;;;5019583;28;20049;-62
2023/04/26 05:58:13;;;;;;;0.00;0.00;;;6.10;99.90;;;;;;5016413;28;20045;-62
2023/04/26 06:00:39;;;;;;;0.10;0.10;;;6.20;99.90;;;;;;5028532;28;20543;-63
2023/04/26 06:03:05;;;;;;;0.30;0.30;;;6.30;99.90;;;;;;5020033;28;20046;-63
2023/04/26 06:05:31;;;;;;;0.00;0.00;;;6.40;99.90;;;;;;5015996;28;20038;-63
2023/04/26 06:07:57;;;;;;;0.10;0.10;;;6.40;99.90;;;;;;5024772;28;20042;-63
2023/04/26 06:10:23;;;;;;;0.10;0.10;;;6.50;99.90;;;;;;5016214;28;20132;-63
2023/04/26 06:12:48;;;;;;;0.00;0.00;;;6.40;99.90;;;;;;5026880;28;20198;-63
2023/04/26 06:15:14;;;;;;;0.20;0.20;;;6.50;99.90;;;;;;5016494;28;20053;-63
2023/04/26 06:17:40;;;;;;;0.10;0.10;;;6.70;99.90;;;;;;5019390;28;20056;-62
2023/04/26 06:20:08;;;;;;;0.10;0.10;;;6.80;99.90;;;;;;5027790;28;20532;-63
2023/04/26 06:22:34;;;;;;;0.10;0.10;;;6.70;99.90;;;;;;5011149;28;20816;-62
2023/04/26 06:25:00;;;;;;;0.00;0.00;;;6.80;99.90;;;;;;5023158;28;20140;-63
2023/04/26 06:27:26;;;;;;;0.10;0.10;;;6.90;99.90;;;;;;5024800;28;20095;-63
2023/04/26 06:29:51;;;;;;;0.10;0.10;;;6.90;99.90;;;;;;5028236;28;20393;-62
2023/04/26 06:32:17;;;;;;;0.10;0.10;;;7.00;99.90;;;;;;5026955;28;20041;-63
2023/04/26 06:34:44;;;;;;;0.35;0.35;;;7.00;99.90;;;;;;5029575;28;20499;-63
2023/04/26 06:37:10;;;;;;;0.30;0.30;;;7.10;99.90;;;;;;5020709;28;20053;-62
2023/04/26 06:39:39;;;;;;;0.10;0.10;;;7.20;99.90;;;;;;5026569;28;20057;-62
2023/04/26 06:42:05;;;;;;;0.10;0.10;;;7.30;99.90;;;;;;5018262;28;20050;-63
2023/04/26 06:44:30;;;;;;;0.10;0.10;;;7.40;99.90;;;;;;5041833;28;20096;-63
2023/04/26 06:46:56;;;;;;;0.10;0.10;;;7.50;99.90;;;;;;5025287;28;20046;-63
2023/04/26 06:49:22;;;;;;;0.08;0.08;;;7.50;99.90;;;;;;5025075;28;20041;-63
2023/04/26 06:51:48;;;;;;;0.10;0.10;;;7.60;99.90;;;;;;5028875;28;20464;-63
2023/04/26 06:54:13;;;;;;;0.10;0.10;;;7.60;99.90;;;;;;5021774;28;20053;-63
2023/04/26 06:56:39;;;;;;;0.20;0.20;;;7.70;99.90;;;;;;5024105;28;20057;-63
2023/04/26 06:59:06;;;;;;;0.10;0.10;;;7.80;99.90;;;;;;5031732;28;20053;-63
2023/04/26 07:01:33;;;;;;;0.00;0.00;;;7.80;99.90;;;;;;5024602;28;20045;-63
2023/04/26 07:04:01;;;;;;;0.10;0.10;;;7.90;99.90;;;;;;5028108;28;20053;-63
2023/04/26 07:06:27;;;;;;;0.08;0.08;;;7.90;99.90;;;;;;5014812;28;20046;-63
2023/04/26 07:08:53;;;;;;;0.00;0.00;;;8.00;99.90;;;;;;5030990;28;20044;-63
2023/04/26 07:11:18;;;;;;;0.10;0.10;;;8.00;99.90;;;;;;5025744;28;20081;-63
2023/04/26 07:13:44;;;;;;;0.10;0.10;;;8.10;99.90;;;;;;5019256;28;20041;-63
2023/04/26 07:16:09;;;;;;;0.10;0.10;;;8.10;99.90;;;;;;5026656;28;20132;-63
2023/04/26 07:18:35;;;;;;;0.10;0.10;;;8.10;99.90;;;;;;5019095;28;20038;-63
2023/04/26 07:21:01;;;;;;;0.10;0.10;;;8.20;99.90;;;;;;5044149;28;20042;-63
2023/04/26 07:23:28;;;;;;;0.20;0.20;;;8.20;99.90;;;;;;5011493;28;20099;-64
2023/04/26 07:25:54;;;;;;;0.10;0.10;;;8.30;99.90;;;;;;5023553;28;20037;-64
2023/04/26 07:28:20;;;;;;;2.22;2.03;;;8.20;99.90;;;;;;5020596;28;20045;-63
2023/04/26 07:30:45;;;;;;;0.10;0.10;;;8.30;99.90;;;;;;5028035;28;20032;-63
2023/04/26 07:33:11;;;;;;;0.20;0.20;;;8.30;99.90;;;;;;5030861;28;20045;-63
2023/04/26 07:35:36;;;;;;;0.10;0.10;;;8.40;99.90;;;;;;5018024;28;20045;-63
2023/04/26 07:38:03;;;;;;;0.00;0.00;;;8.60;99.90;;;;;;5008693;28;20046;-63
2023/04/26 07:40:30;;;;;;;1.10;1.00;;;8.60;99.90;;;;;;5011557;28;20188;-63
2023/04/26 07:42:56;;;;;;;0.10;0.10;;;8.60;99.90;;;;;;5024150;28;20045;-63
2023/04/26 07:45:21;;;;;;;0.10;0.10;;;8.60;99.90;;;;;;5012136;28;20046;-63
2023/04/26 07:47:47;;;;;;;0.10;0.10;;;8.60;99.90;;;;;;5023176;28;20037;-63
2023/04/26 07:50:13;;;;;;;0.20;0.20;;;8.60;99.90;;;;;;5026167;28;20048;-63
2023/04/26 07:52:38;;;;;;;0.00;0.00;;;8.70;99.90;;;;;;5010372;28;20049;-63
2023/04/26 07:55:04;;;;;;;0.00;0.00;;;8.70;99.90;;;;;;5016114;28;20610;-63
2023/04/26 07:57:30;;;;;;;0.35;0.35;;;8.50;99.90;;;;;;5032621;28;20033;-63
2023/04/26 07:59:56;;;;;;;0.20;0.20;;;8.50;99.90;;;;;;5012411;28;20060;-63
2023/04/26 08:02:21;;;;;;;1.88;1.20;;;8.70;99.90;;;;;;5018431;28;20046;-63
2023/04/26 08:04:49;;;;;;;0.10;0.10;;;8.80;99.90;;;;;;5016094;28;20116;-63
2023/04/26 08:07:15;;;;;;;0.00;0.00;;;8.80;99.90;;;;;;5010572;28;20041;-63
2023/04/26 08:09:41;;;;;;;0.10;0.10;;;8.80;99.90;;;;;;5020270;28;20456;-63
2023/04/26 08:12:06;;;;;;;0.10;0.10;;;8.80;99.90;;;;;;5022978;28;20120;-62
2023/04/26 08:14:34;;;;;;;0.00;0.00;;;8.60;99.90;;;;;;5013348;28;20523;-64
2023/04/26 08:17:00;;;;;;;0.10;0.10;;;8.10;99.90;;;;;;5016444;28;20099;-64
2023/04/26 08:19:29;;;;;;;0.10;0.10;;;7.90;99.90;;;;;;5024023;28;20054;-64
2023/04/26 08:21:55;;;;;;;0.60;0.60;;;7.70;99.90;;;;;;5028930;28;20037;-64
2023/04/26 08:24:21;;;;;;;0.10;0.10;;;7.60;99.90;;;;;;5029368;28;20058;-63
2023/04/26 08:26:46;;;;;;;0.10;0.10;;;7.60;99.90;;;;;;5024788;28;20054;-64
2023/04/26 08:29:13;;;;;;;0.10;0.10;;;7.60;99.90;;;;;;5022062;28;20084;-64
2023/04/26 08:31:39;;;;;;;1.25;1.10;;;7.70;99.90;;;;;;5022692;28;20041;-64
2023/04/26 08:34:05;;;;;;;0.10;0.10;;;7.70;99.90;;;;;;5014957;28;20543;-64
2023/04/26 08:36:34;;;;;;;0.10;0.10;;;7.80;99.90;;;;;;5018164;28;20052;-64
2023/04/26 08:39:00;;;;;;;0.10;0.10;;;7.80;99.90;;;;;;5015691;28;20543;-63
2023/04/26 08:41:26;;;;;;;0.10;0.10;;;7.80;99.90;;;;;;5017673;28;20061;-63
2023/04/26 08:43:54;;;;;;;0.00;0.00;;;7.90;99.90;;;;;;5014746;28;20501;-63
2023/04/26 08:46:21;;;;;;;0.68;0.68;;;8.00;99.90;;;;;;5016658;28;20057;-63
2023/04/26 08:48:58;;;;;;;0.10;0.10;;;8.10;99.90;;;;;;5021811;28;20096;-63
2023/04/26 08:51:26;;;;;;;0.10;0.10;;;8.20;99.90;;;;;;5021471;28;20111;-63
2023/04/26 08:53:52;;;;;;;2.97;2.70;;;8.10;99.90;;;;;;5021524;28;20042;-63
2023/04/26 08:56:22;;;;;;;1.13;1.02;;;8.30;99.90;;;;;;5029852;28;20134;-63
2023/04/26 08:58:48;;;;;;;0.00;0.00;;;8.30;99.90;;;;;;5012175;28;20044;-63
2023/04/26 09:01:14;;;;;;;0.52;0.52;;;8.40;99.90;;;;;;5018695;28;20457;-63
2023/04/26 09:03:40;;;;;;;0.10;0.10;;;8.40;99.90;;;;;;5023142;28;20029;-63
2023/04/26 09:06:06;;;;;;;0.10;0.10;;;8.40;99.90;;;;;;5020222;28;20068;-64
2023/04/26 09:08:35;;;;;;;0.00;0.00;;;8.50;99.90;;;;;;5024946;28;20049;-64
2023/04/26 09:11:02;;;;;;;0.68;0.63;;;8.50;99.90;;;;;;5032762;28;20045;-64
2023/04/26 09:13:29;;;;;;;0.10;0.10;;;8.60;99.90;;;;;;5032157;28;20033;-64
2023/04/26 09:15:54;;;;;;;0.00;0.00;;;8.70;99.90;;;;;;5019573;28;20080;-64
2023/04/26 09:18:22;;;;;;;0.00;0.00;;;8.70;99.90;;;;;;5025997;28;20464;-64
2023/04/26 09:21:04;;;;;;;0.43;0.43;;;8.70;99.90;;;;;;5029637;28;20049;-64
2023/04/26 09:23:31;;;;;;;0.28;0.28;;;8.90;99.90;;;;;;5024633;28;20045;-64
2023/04/26 09:26:15;;;;;;;0.00;0.00;;;8.90;99.90;;;;;;5013377;28;20088;-63
2023/04/26 09:28:41;;;;;;;0.00;0.00;;;9.20;99.90;;;;;;5015206;28;20104;-63
2023/04/26 09:31:07;;;;;;;0.10;0.10;;;9.40;99.90;;;;;;5023693;28;20037;-63
2023/04/26 09:33:32;;;;;;;0.57;0.57;;;9.30;99.90;;;;;;5019303;28;20038;-64
2023/04/26 09:36:10;;;;;;;0.10;0.10;;;9.30;99.90;;;;;;5021473;28;20065;-64
2023/04/26 09:38:41;;;;;;;0.10;0.10;;;9.20;99.90;;;;;;5018778;28;20049;-63
2023/04/26 09:41:07;;;;;;;0.10;0.10;;;9.00;99.90;;;;;;5024172;28;20423;-63
2023/04/26 09:43:36;;;;;;;0.00;0.00;;;9.10;99.90;;;;;;5028590;28;20041;-64
2023/04/26 09:46:02;;;;;;;0.20;0.20;;;9.10;99.90;;;;;;5025380;28;20042;-64
2023/04/26 09:48:33;;;;;;;0.05;0.05;;;9.20;99.90;;;;;;5013898;28;20143;-64
2023/04/26 09:51:02;;;;;;;0.10;0.10;;;9.20;99.90;;;;;;5023760;28;20401;-64
2023/04/26 09:53:43;;;;;;;0.00;0.00;;;9.10;99.90;;;;;;5024159;28;20076;-64
2023/04/26 09:56:17;;;;;;;1.15;0.57;;;9.20;99.90;;;;;;5020182;28;20034;-64
2023/04/26 09:58:46;;;;;;;0.10;0.10;;;9.20;99.90;;;;;;5027073;28;20129;-64
2023/04/26 10:01:15;;;;;;;0.10;0.10;;;9.70;99.90;;;;;;5025252;28;20071;-64
2023/04/26 10:03:44;;;;;;;0.10;0.10;;;10.50;99.90;;;;;;5021208;28;20084;-64
2023/04/26 10:06:11;;;;;;;0.10;0.10;;;10.80;99.90;;;;;;5025065;28;20041;-64
2023/04/26 10:08:36;;;;;;;0.00;0.00;;;11.10;99.90;;;;;;5022546;28;20045;-64
2023/04/26 10:11:12;;;;;;;0.43;0.43;;;11.10;99.90;;;;;;5028018;28;20041;-64
2023/04/26 10:13:40;;;;;;;0.00;0.00;;;11.30;99.90;;;;;;5016743;28;20053;-66
2023/04/26 10:16:06;;;;;;;0.10;0.10;;;11.30;99.90;;;;;;5026447;28;20092;-64
2023/04/26 10:18:32;;;;;;;0.10;0.10;;;11.30;99.90;;;;;;5025862;28;20034;-64
2023/04/26 10:21:03;;;;;;;0.52;0.52;;;11.40;99.90;;;;;;5018651;28;20060;-64
2023/04/26 10:23:30;;;;;;;0.00;0.00;;;11.70;99.90;;;;;;5021708;28;20042;-64
2023/04/26 10:25:56;;;;;;;0.10;0.10;;;12.00;99.90;;;;;;5019911;28;20346;-64
2023/04/26 10:28:53;;;;;;;0.15;0.15;;;12.30;99.90;;;;;;5027060;28;20041;-64
2023/04/26 10:31:19;;;;;;;0.10;0.10;;;12.30;99.90;;;;;;5015692;28;20052;-64
2023/04/26 10:34:30;;;;;;;0.00;0.00;;;12.30;99.90;;;;;;5022539;28;20045;-64
2023/04/26 10:37:10;;;;;;;0.05;0.05;;;11.90;99.90;;;;;;5006672;28;20061;-63
2023/04/26 10:39:36;;;;;;;0.10;0.10;;;11.70;99.90;;;;;;5021792;28;20045;-64
2023/04/26 10:42:24;;;;;;;0.13;0.13;;;11.50;99.90;;;;;;5017367;28;20113;-64
2023/04/26 10:44:58;;;;;;;0.00;0.00;;;11.40;99.90;;;;;;5016623;28;20073;-64
2023/04/26 10:47:38;;;;;;;0.43;0.32;;;11.40;99.90;;;;;;5024752;28;20214;-64
2023/04/26 10:50:10;;;;;;;0.20;0.20;;;11.50;99.90;;;;;;5022506;28;20057;-63
2023/04/26 10:53:04;;;;;;;0.17;0.17;;;11.40;99.90;;;;;;5018304;28;20084;-64
2023/04/26 10:55:42;;;;;;;0.10;0.10;;;11.40;99.90;;;;;;5021484;28;20057;-64
2023/04/26 10:58:27;;;;;;;0.05;0.05;;;11.80;99.90;;;;;;5014076;28;20042;-64
2023/04/26 11:01:10;;;;;;;0.35;0.35;;;11.80;99.90;;;;;;5020505;28;20091;-64
2023/04/26 11:03:37;;;;;;;0.10;0.10;;;11.70;99.90;;;;;;5028857;28;20053;-64
2023/04/26 11:06:12;;;;;;;0.03;0.03;;;12.00;99.90;;;;;;5021544;28;20505;-64
2023/04/26 11:08:38;;;;;;;0.30;0.30;;;12.50;99.90;;;;;;5022591;28;20144;-63
2023/04/26 11:11:03;;;;;;;0.10;0.10;;;12.80;99.90;;;;;;5024365;28;20167;-64
2023/04/26 11:13:38;;;;;;;0.25;0.25;;;13.00;99.90;;;;;;5021489;28;20037;-64
2023/04/26 11:16:05;;;;;;;0.00;0.00;;;12.90;99.90;;;;;;5044579;28;20049;-64
2023/04/26 11:18:32;;;;;;;0.10;0.10;;;13.00;99.90;;;;;;5032451;28;20033;-64
2023/04/26 11:20:58;;;;;;;0.00;0.00;;;13.10;99.90;;;;;;5027750;28;20055;-64
2023/04/26 11:23:27;;;;;;;0.10;0.10;;;13.20;99.90;;;;;;5024097;28;20046;-64
2023/04/26 11:25:53;;;;;;;0.00;0.00;;;13.20;99.90;;;;;;5017719;28;20383;-65
2023/04/26 11:28:22;;;;;;;0.10;0.10;;;13.50;99.90;;;;;;5012341;28;20045;-65
2023/04/26 11:30:49;;;;;;;3.13;1.48;;;13.40;99.90;;;;;;5015766;28;20978;-65
2023/04/26 11:33:21;;;;;;;0.05;0.05;;;13.50;99.90;;;;;;5021951;28;20439;-63
2023/04/26 11:35:47;;;;;;;0.10;0.10;;;13.40;99.90;;;;;;5021258;28;20050;-63
2023/04/26 11:38:14;;;;;;;0.00;0.00;;;13.70;99.90;;;;;;5017736;28;20085;-63
2023/04/26 11:40:40;;;;;;;0.00;0.00;;;13.90;99.90;;;;;;5014996;28;20049;-63
2023/04/26 11:43:07;;;;;;;0.00;0.00;;;14.00;99.20;;;;;;5024026;28;20404;-63
2023/04/26 11:45:36;;;;;;;4.20;1.65;;;14.20;99.70;;;;;;5024259;28;20049;-63
2023/04/26 11:48:03;;;;;;;0.57;0.38;;;14.50;99.90;;;;;;5016071;28;20497;-63
2023/04/26 11:50:31;;;;;;;0.70;0.70;;;14.30;96.70;;;;;;5027683;28;20068;-63
2023/04/26 11:52:59;;;;;;;0.13;0.13;;;13.90;96.90;;;;;;5020518;28;20083;-63
2023/04/26 11:55:31;;;;;;;0.08;0.08;;;14.20;99.70;;;;;;5019111;28;20050;-63
2023/04/26 11:57:57;;;;;;;0.10;0.10;;;14.40;97.90;;;;;;5025007;28;20077;-64
2023/04/26 12:00:23;;;;;;;0.00;0.00;;;14.50;97.90;;;;;;5011813;28;20634;-64
2023/04/26 12:02:50;;;;;;;0.00;0.00;;;14.80;98.00;;;;;;5018302;28;20069;-64
2023/04/26 12:05:23;;;;;;;0.47;0.47;;;14.30;96.40;;;;;;5029154;28;20041;-64
2023/04/26 12:07:51;;;;;;;0.10;0.10;;;14.20;97.50;;;;;;5020918;28;20046;-64
2023/04/26 12:10:19;;;;;;;0.10;0.10;;;14.10;97.10;;;;;;5017528;28;20118;-64
2023/04/26 12:12:49;;;;;;;0.55;0.55;;;13.90;98.80;;;;;;5029706;28;20037;-65
2023/04/26 12:15:23;;;;;;;0.10;0.10;;;14.00;99.90;;;;;;5019080;28;20124;-64
2023/04/26 12:18:09;;;;;;;0.10;0.10;;;13.50;96.80;;;;;;5023140;28;20478;-64
2023/04/26 12:20:36;;;;;;;0.70;0.70;;;13.20;98.00;;;;;;5026465;28;20128;-64
2023/04/26 12:23:05;;;;;;;1.17;1.08;;;13.10;96.50;;;;;;5019597;28;20087;-64
2023/04/26 12:25:33;;;;;;;0.20;0.20;;;13.00;98.40;;;;;;5028320;28;20466;-64
2023/04/26 12:27:59;;;;;;;0.25;0.08;;;12.90;99.30;;;;;;5028699;28;20077;-64
2023/04/26 12:30:26;;;;;;;2.10;1.65;;;12.50;99.40;;;;;;5023331;28;20046;-63
2023/04/26 12:32:52;;;;;;;0.10;0.10;;;12.60;99.90;;;;;;5024384;28;20124;-65
2023/04/26 12:35:17;;;;;;;0.08;0.08;;;12.40;99.90;;;;;;5028221;28;20268;-64
2023/04/26 12:37:43;;;;;;;0.10;0.10;;;12.10;99.90;;;;;;5015561;28;20033;-64
2023/04/26 12:40:10;;;;;;;0.13;0.13;;;11.50;99.90;;;;;;5025316;28;20057;-64
2023/04/26 12:42:36;;;;;;;0.08;0.08;;;11.20;99.90;;;;;;5018710;28;20551;-64
2023/04/26 12:45:02;;;;;;;0.15;0.15;;;10.80;99.90;;;;;;5025911;28;20041;-64
2023/04/26 12:47:30;;;;;;;0.00;0.00;;;10.80;99.90;;;;;;5018864;28;20037;-64
2023/04/26 12:49:55;;;;;;;2.85;1.38;;;10.90;99.90;;;;;;5022134;28;20041;-64
2023/04/26 12:52:21;;;;;;;0.20;0.20;;;10.90;99.90;;;;;;5027990;28;20034;-64
2023/04/26 12:54:47;;;;;;;1.02;0.68;;;11.00;99.90;;;;;;5032646;28;20107;-64